Time;durP1;ratioP1;P1;durP2;ratioP2;P2;SDS_P1;SDS_P2;PMS_P1;PMS_P2;Temp;Humidity;BMP_temperature;BMP_pressure;BME280_temperature;BME280_humidity;BME280_pressure;Samples;Min_cycle;Max_cycle;Signal;HPM_P1;HPM_P2
2022/05/25 00:08:45;;;;;;;2.50;1.48;;;12.20;99.90;;;;;;6637319;89;20196;-77
2022/05/25 00:29:05;;;;;;;4.10;1.60;;;12.00;99.90;;;;;;6639506;89;20751;-77
2022/05/25 00:39:06;;;;;;;2.25;1.30;;;12.00;99.90;;;;;;6636300;89;20238;-77
2022/05/25 00:49:20;;;;;;;4.60;1.90;;;12.00;99.90;;;;;;6639671;89;20230;-77
2022/05/25 00:59:31;;;;;;;3.00;1.37;;;11.80;99.90;;;;;;6639904;89;20288;-77
2022/05/25 01:10:16;;;;;;;2.45;1.20;;;11.70;99.90;;;;;;6636960;89;20189;-77
2022/05/25 01:20:43;;;;;;;3.08;1.20;;;11.70;99.90;;;;;;6616740;89;20201;-77
2022/05/25 01:30:49;;;;;;;4.35;1.60;;;11.70;99.90;;;;;;6635978;88;20273;-77
2022/05/25 01:41:02;;;;;;;;;;;11.70;99.90;;;;;;6623639;89;20223;-77
2022/05/25 01:51:09;;;;;;;4.50;1.40;;;11.60;99.90;;;;;;6622234;89;20524;-78
2022/05/25 02:01:11;;;;;;;2.90;1.42;;;11.70;99.90;;;;;;6621686;89;20188;-77
2022/05/25 02:11:31;;;;;;;3.22;1.40;;;11.30;99.90;;;;;;6620640;89;20348;-77
2022/05/25 02:21:53;;;;;;;4.30;1.35;;;11.30;99.90;;;;;;6621389;89;20640;-77
2022/05/25 02:31:59;;;;;;;2.55;1.17;;;11.20;99.90;;;;;;6634359;88;20465;-77
2022/05/25 02:42:00;;;;;;;2.05;1.40;;;11.00;99.90;;;;;;6621342;89;20211;-77
2022/05/25 02:52:00;;;;;;;3.45;1.50;;;10.80;99.90;;;;;;6621704;89;20277;-77
2022/05/25 03:02:02;;;;;;;2.30;1.30;;;10.90;99.90;;;;;;6622686;88;20211;-77
2022/05/25 03:12:07;;;;;;;2.92;1.10;;;10.80;99.90;;;;;;6620067;89;20486;-77
2022/05/25 03:22:08;;;;;;;4.60;1.20;;;10.80;99.90;;;;;;6620194;89;20359;-78
2022/05/25 03:32:09;;;;;;;2.83;1.55;;;10.60;99.90;;;;;;6624065;89;20212;-77
2022/05/25 03:42:14;;;;;;;1.80;1.20;;;10.60;99.90;;;;;;6619840;89;20206;-77
2022/05/25 03:52:20;;;;;;;5.00;1.40;;;10.40;99.90;;;;;;6622768;89;20194;-77
2022/05/25 04:02:21;;;;;;;3.35;1.20;;;10.40;99.90;;;;;;6621919;89;20660;-77
2022/05/25 04:12:22;;;;;;;6.80;1.60;;;10.40;99.90;;;;;;6620880;89;20239;-77
2022/05/25 04:22:23;;;;;;;2.97;1.50;;;10.30;99.90;;;;;;6623367;89;20198;-77
2022/05/25 04:32:23;;;;;;;3.60;1.12;;;10.40;99.90;;;;;;6621289;89;20760;-77
2022/05/25 04:42:29;;;;;;;6.22;1.55;;;10.50;99.90;;;;;;6619927;89;20641;-77
2022/05/25 04:52:30;;;;;;;3.67;1.30;;;10.60;99.90;;;;;;6618001;89;20251;-77
2022/05/25 05:02:31;;;;;;;3.87;1.48;;;10.70;99.90;;;;;;6619665;89;20248;-77
2022/05/25 05:12:32;;;;;;;5.45;2.70;;;11.00;99.90;;;;;;6617395;89;20297;-77
2022/05/25 05:22:32;;;;;;;5.12;1.90;;;11.20;99.90;;;;;;6617829;89;20234;-78
2022/05/25 05:32:35;;;;;;;3.78;1.70;;;11.20;99.90;;;;;;6622536;89;20243;-77
2022/05/25 05:42:39;;;;;;;5.62;2.40;;;11.40;99.90;;;;;;6628194;89;20207;-77
2022/05/25 05:52:39;;;;;;;2.42;1.20;;;11.80;99.90;;;;;;6624749;89;20648;-78
2022/05/25 06:02:40;;;;;;;2.67;1.15;;;12.10;99.90;;;;;;6623947;89;20202;-79
2022/05/25 06:12:41;;;;;;;5.40;0.88;;;12.80;99.90;;;;;;6625045;89;20288;-79
2022/05/25 06:22:42;;;;;;;2.80;0.90;;;13.10;99.90;;;;;;6639026;88;20197;-78
2022/05/25 06:32:42;;;;;;;1.98;0.62;;;13.70;99.90;;;;;;6639239;89;20232;-79
2022/05/25 06:42:43;;;;;;;1.65;0.60;;;14.10;99.90;;;;;;6642344;89;20292;-77
2022/05/25 06:52:43;;;;;;;1.10;0.50;;;14.40;99.90;;;;;;6637922;88;20263;-78
2022/05/25 07:02:47;;;;;;;3.43;0.53;;;15.60;99.90;;;;;;6621959;89;20510;-79
2022/05/25 07:12:47;;;;;;;1.55;0.50;;;15.90;99.90;;;;;;6621310;89;21005;-79
2022/05/25 07:22:48;;;;;;;1.40;0.50;;;16.50;99.90;;;;;;6621065;88;20193;-78
2022/05/25 07:32:51;;;;;;;1.45;0.50;;;16.90;99.90;;;;;;6705516;88;20199;-79
2022/05/25 07:43:13;;;;;;;2.30;0.40;;;17.00;99.90;;;;;;6708585;88;20201;-79
2022/05/25 08:13:56;;;;;;;0.95;0.30;;;18.30;98.10;;;;;;6622180;89;20661;-79
2022/05/25 08:23:56;;;;;;;1.25;0.30;;;19.10;95.10;;;;;;6621585;89;20209;-78
2022/05/25 08:33:57;;;;;;;0.87;0.30;;;18.70;93.30;;;;;;6623191;89;20383;-78
2022/05/25 08:44:00;;;;;;;1.67;0.37;;;19.50;90.60;;;;;;6625920;89;20227;-79
2022/05/25 08:54:01;;;;;;;3.08;0.50;;;19.70;90.10;;;;;;6639476;88;20585;-79
2022/05/25 09:04:03;;;;;;;1.12;0.30;;;19.40;89.00;;;;;;6624781;89;20649;-79
2022/05/25 09:14:35;;;;;;;1.02;0.35;;;20.00;89.20;;;;;;6643101;88;20307;-79
2022/05/25 09:24:36;;;;;;;3.22;0.35;;;20.80;87.40;;;;;;6624041;89;20674;-79
2022/05/25 09:35:00;;;;;;;0.60;0.30;;;21.10;83.20;;;;;;6638424;88;20207;-79
2022/05/25 09:45:01;;;;;;;0.68;0.30;;;21.00;78.90;;;;;;6623354;89;20235;-79
2022/05/25 09:55:10;;;;;;;1.00;0.35;;;21.70;76.70;;;;;;6623405;89;20416;-80
2022/05/25 10:05:23;;;;;;;1.70;0.30;;;21.40;78.10;;;;;;6622834;89;20631;-78
2022/05/25 10:15:36;;;;;;;0.82;0.40;;;22.00;75.70;;;;;;6619365;89;20784;-79
2022/05/25 10:25:45;;;;;;;0.90;0.30;;;21.90;74.80;;;;;;6622350;89;20225;-80
2022/05/25 10:46:20;;;;;;;;;;;23.50;72.40;;;;;;6620519;89;20208;-79
2022/05/25 10:56:30;;;;;;;0.85;0.30;;;23.60;71.10;;;;;;6623360;89;20093;-79
2022/05/25 11:06:30;;;;;;;2.03;0.40;;;23.20;71.00;;;;;;6621901;89;20271;-79
2022/05/25 11:16:55;;;;;;;0.90;0.30;;;23.30;69.70;;;;;;6634792;89;20327;-80
2022/05/25 11:37:30;;;;;;;0.70;0.20;;;23.80;66.10;;;;;;6663199;88;20196;-80
2022/05/25 11:47:52;;;;;;;1.10;0.35;;;24.20;65.60;;;;;;6662438;89;20177;-80
2022/05/25 11:58:02;;;;;;;1.58;0.40;;;24.20;64.60;;;;;;6666574;89;20728;-80
2022/05/25 12:08:34;;;;;;;0.55;0.20;;;23.50;64.40;;;;;;6660988;89;20205;-80
2022/05/25 12:19:02;;;;;;;0.68;0.30;;;23.20;63.70;;;;;;6661495;89;20385;-81
2022/05/25 12:29:27;;;;;;;0.73;0.30;;;23.40;63.60;;;;;;6672907;89;20192;-81
2022/05/25 12:39:43;;;;;;;2.17;0.50;;;24.40;61.40;;;;;;6663796;88;20635;-80
2022/05/25 12:49:45;;;;;;;1.30;0.32;;;23.50;62.20;;;;;;6707856;88;20690;-82
2022/05/25 12:59:46;;;;;;;1.17;0.40;;;22.50;63.60;;;;;;6660776;88;20730;-80
2022/05/25 13:09:47;;;;;;;1.62;0.40;;;23.60;63.20;;;;;;6663819;88;20225;-81
2022/05/25 13:19:47;;;;;;;0.98;0.40;;;23.30;63.20;;;;;;6678282;88;20736;-81
2022/05/25 13:30:02;;;;;;;5.28;0.62;;;23.90;62.20;;;;;;6662697;89;20232;-82
2022/05/25 13:40:02;;;;;;;1.65;0.40;;;23.80;62.90;;;;;;6659892;89;20285;-79
2022/05/25 13:50:03;;;;;;;1.70;0.43;;;22.80;64.70;;;;;;6661606;88;20221;-80
2022/05/25 14:00:10;;;;;;;1.60;0.30;;;22.80;65.70;;;;;;6658587;89;20215;-80
2022/05/25 14:20:48;;;;;;;1.67;0.40;;;23.50;63.40;;;;;;6655519;89;20258;-79
2022/05/25 14:30:53;;;;;;;1.17;0.40;;;22.50;65.00;;;;;;6658125;88;20228;-80
2022/05/25 14:40:55;;;;;;;1.70;0.30;;;22.20;65.30;;;;;;6652029;88;20185;-80
2022/05/25 14:51:01;;;;;;;1.17;0.37;;;23.10;63.30;;;;;;6653022;88;20190;-80
2022/05/25 15:01:04;;;;;;;2.05;0.45;;;22.20;64.10;;;;;;6657972;88;20724;-80
2022/05/25 15:11:31;;;;;;;2.20;0.40;;;22.60;64.60;;;;;;6655937;88;20200;-80
2022/05/25 15:21:34;;;;;;;2.20;0.37;;;23.90;64.50;;;;;;6664095;88;20254;-80
2022/05/25 15:31:34;;;;;;;1.40;0.30;;;23.00;63.70;;;;;;6678936;88;20768;-80
2022/05/25 15:41:35;;;;;;;2.05;0.40;;;22.70;65.50;;;;;;6680052;88;20186;-81
2022/05/25 15:51:40;;;;;;;2.50;0.50;;;22.70;64.40;;;;;;6680236;88;20235;-79
2022/05/25 16:01:40;;;;;;;1.55;0.50;;;21.90;65.10;;;;;;6680803;88;20212;-80
2022/05/25 16:11:45;;;;;;;2.93;0.40;;;22.20;66.20;;;;;;6679242;88;20276;-80
2022/05/25 16:21:46;;;;;;;3.00;0.60;;;23.20;66.20;;;;;;6663722;88;20301;-80
2022/05/25 16:31:47;;;;;;;1.58;0.47;;;22.60;66.40;;;;;;6661479;89;21212;-78
2022/05/25 16:41:48;;;;;;;1.80;0.50;;;22.00;68.10;;;;;;6667991;89;20192;-78
2022/05/25 16:51:48;;;;;;;1.77;0.55;;;21.80;68.70;;;;;;6653177;89;20974;-79
2022/05/25 17:01:49;;;;;;;2.00;0.68;;;21.50;69.00;;;;;;6655622;89;20215;-79
2022/05/25 17:11:52;;;;;;;3.08;0.50;;;21.10;69.20;;;;;;6652739;89;20213;-79
2022/05/25 17:21:53;;;;;;;3.15;0.50;;;20.80;70.10;;;;;;6651652;89;20199;-79
2022/05/25 17:32:17;;;;;;;2.75;0.80;;;20.50;71.10;;;;;;6649107;78;20207;-81
2022/05/25 17:42:17;;;;;;;2.87;0.52;;;20.40;72.00;;;;;;6700953;88;20190;-78
2022/05/25 17:52:18;;;;;;;1.05;0.37;;;19.90;72.80;;;;;;6704475;88;20220;-80
2022/05/25 18:02:18;;;;;;;2.72;0.60;;;19.70;72.80;;;;;;6706080;88;20199;-79
2022/05/25 18:12:19;;;;;;;1.20;0.60;;;19.70;74.00;;;;;;6700786;88;20178;-78
2022/05/25 18:22:20;;;;;;;1.40;0.50;;;19.50;73.80;;;;;;6702725;88;20223;-79
2022/05/25 18:32:21;;;;;;;1.95;0.55;;;19.40;74.30;;;;;;6701656;88;20235;-78
2022/05/25 18:42:22;;;;;;;1.55;0.50;;;19.10;74.60;;;;;;6701245;88;20282;-78
2022/05/25 18:52:23;;;;;;;1.45;0.50;;;18.90;76.50;;;;;;6700434;88;20227;-78
2022/05/25 19:02:24;;;;;;;2.05;0.50;;;18.70;77.70;;;;;;6704864;88;20218;-78
2022/05/25 19:12:25;;;;;;;2.08;0.68;;;18.50;78.20;;;;;;6705590;88;20194;-78
2022/05/25 19:22:31;;;;;;;2.55;0.60;;;18.40;78.20;;;;;;6704327;88;20561;-78
2022/05/25 19:32:32;;;;;;;1.23;0.60;;;18.40;78.80;;;;;;6706706;88;20388;-80
2022/05/25 19:42:41;;;;;;;1.58;0.70;;;18.30;80.10;;;;;;6697992;88;20207;-79
2022/05/25 19:52:41;;;;;;;3.30;0.70;;;18.10;81.20;;;;;;6689324;89;20215;-80
2022/05/25 20:02:42;;;;;;;1.77;0.60;;;18.00;82.80;;;;;;6705294;88;20199;-78
2022/05/25 20:12:43;;;;;;;1.90;0.60;;;17.90;84.60;;;;;;6701815;88;20178;-79
2022/05/25 20:22:43;;;;;;;2.35;0.62;;;17.80;85.50;;;;;;6705973;88;20343;-79
2022/05/25 20:32:44;;;;;;;1.00;0.40;;;17.70;87.40;;;;;;6708223;88;20616;-79
2022/05/25 20:42:46;;;;;;;1.92;0.57;;;17.50;88.60;;;;;;6707065;88;20354;-78
2022/05/25 20:52:47;;;;;;;1.58;0.50;;;17.50;90.20;;;;;;6706991;88;20186;-79
2022/05/25 21:02:48;;;;;;;3.58;0.50;;;17.40;91.30;;;;;;6705574;88;20883;-78
2022/05/25 21:12:48;;;;;;;1.55;0.60;;;17.60;91.60;;;;;;6706124;88;20309;-78
2022/05/25 21:22:50;;;;;;;2.08;0.40;;;17.50;92.10;;;;;;6705277;88;20203;-79
2022/05/25 21:32:50;;;;;;;1.58;0.50;;;17.40;92.50;;;;;;6712216;88;20212;-79
2022/05/25 21:42:51;;;;;;;2.15;0.50;;;17.40;93.10;;;;;;6724913;88;20177;-79
2022/05/25 21:52:51;;;;;;;4.28;0.68;;;17.10;93.70;;;;;;6710428;88;21036;-79
2022/05/25 22:02:52;;;;;;;2.85;0.50;;;17.20;93.60;;;;;;6704387;88;20227;-78
2022/05/25 22:12:54;;;;;;;1.85;0.60;;;17.30;94.20;;;;;;6703949;88;20212;-78
2022/05/25 22:22:56;;;;;;;2.47;0.52;;;17.10;95.00;;;;;;6696447;88;20324;-78
2022/05/25 22:32:58;;;;;;;1.75;0.60;;;17.10;95.70;;;;;;6717115;88;20257;-78
2022/05/25 22:42:59;;;;;;;2.33;0.50;;;17.10;96.40;;;;;;6707673;88;21043;-78
2022/05/25 22:53:00;;;;;;;1.87;0.43;;;17.00;97.40;;;;;;6700866;88;20186;-78
2022/05/25 23:03:00;;;;;;;1.40;0.50;;;16.90;98.20;;;;;;6716922;88;20252;-77
2022/05/25 23:13:01;;;;;;;1.95;0.65;;;16.90;99.00;;;;;;6712730;88;20359;-79
2022/05/25 23:23:02;;;;;;;2.05;0.50;;;16.80;99.80;;;;;;6703239;88;20763;-78
2022/05/25 23:33:03;;;;;;;1.48;0.52;;;16.90;99.90;;;;;;6704955;88;20198;-78
2022/05/25 23:53:07;;;;;;;1.73;0.60;;;16.60;99.90;;;;;;6651305;89;20223;-77
